createdAt,value
2023-05-24T00:03:25.270Z,99016.84
2023-05-24T00:08:30.511Z,99011.03
2023-05-24T00:13:40.029Z,99012.31
2023-05-24T00:18:47.349Z,99021.09
2023-05-24T00:23:52.528Z,99029.69
2023-05-24T00:29:00.648Z,99022.84
2023-05-24T00:34:05.861Z,99012.50
2023-05-24T00:39:15.715Z,99021.97
2023-05-24T00:44:26.777Z,99026.03
2023-05-24T00:49:33.196Z,99027.91
2023-05-24T00:54:40.940Z,99025.75
2023-05-24T00:59:53.788Z,99026.81
2023-05-24T01:05:00.234Z,99035.91
2023-05-24T01:10:20.132Z,99044.16
2023-05-24T01:15:34.603Z,99044.28
2023-05-24T01:20:43.244Z,99042.66
2023-05-24T01:26:17.940Z,99046.19
2023-05-24T01:31:28.972Z,99049.31
2023-05-24T01:36:34.081Z,99053.06
2023-05-24T01:41:46.045Z,99042.88
2023-05-24T01:47:07.875Z,99050.44
2023-05-24T01:52:18.844Z,99055.34
2023-05-24T01:57:26.190Z,99059.84
2023-05-24T02:02:34.165Z,99054.53
2023-05-24T02:07:39.463Z,99057.53
2023-05-24T02:12:45.176Z,99057.81
2023-05-24T02:17:54.891Z,99062.88
2023-05-24T02:23:00.729Z,99058.69
2023-05-24T02:28:06.084Z,99055.09
2023-05-24T02:33:14.361Z,99055.09
2023-05-24T02:38:19.663Z,99059.47
2023-05-24T02:43:24.885Z,99059.44
2023-05-24T02:48:33.142Z,99054.19
2023-05-24T02:53:38.698Z,99045.28
2023-05-24T02:58:45.197Z,99047.16
2023-05-24T03:03:55.873Z,99048.47
2023-05-24T03:09:01.993Z,99042.34
2023-05-24T03:14:07.633Z,99047.72
2023-05-24T03:19:17.487Z,99056.03
2023-05-24T03:24:22.763Z,99046.34
2023-05-24T03:29:28.127Z,99065.88
2023-05-24T03:34:41.306Z,99064.16
2023-05-24T03:39:47.547Z,99056.41
2023-05-24T03:45:14.970Z,99065.16
2023-05-24T03:50:27.371Z,99065.16
2023-05-24T03:55:32.502Z,99076.09
2023-05-24T04:00:37.856Z,99084.69
2023-05-24T04:05:48.693Z,99089.53
2023-05-24T04:10:58.489Z,99086.94
2023-05-24T04:16:06.005Z,99096.56
2023-05-24T04:21:16.913Z,99104.22
2023-05-24T04:26:33.352Z,99098.19
2023-05-24T04:31:38.725Z,99108.44
2023-05-24T04:36:54.629Z,99112.16
2023-05-24T04:42:00.961Z,99110.75
2023-05-24T04:47:12.911Z,99117.28
2023-05-24T04:52:22.918Z,99116.44
2023-05-24T04:57:29.045Z,99118.72
2023-05-24T05:02:37.213Z,99130.59
2023-05-24T05:07:45.620Z,99145.69
2023-05-24T05:12:50.727Z,99149.81
2023-05-24T05:17:59.836Z,99145.81
2023-05-24T05:23:07.901Z,99147.25
2023-05-24T05:28:13.428Z,99154.00
2023-05-24T05:33:21.283Z,99149.38
2023-05-24T05:38:29.101Z,99150.94
2023-05-24T05:43:38.135Z,99152.94
2023-05-24T05:48:46.831Z,99156.28
2023-05-24T05:53:54.778Z,99158.59
2023-05-24T05:59:00.231Z,99162.63
2023-05-24T06:04:16.011Z,99156.75
2023-05-24T06:09:24.909Z,99150.69
2023-05-24T06:14:32.695Z,99154.31
2023-05-24T06:19:38.743Z,99169.75
2023-05-24T06:24:46.788Z,99176.66
2023-05-24T06:29:53.595Z,99174.47
2023-05-24T06:35:07.094Z,99190.50
2023-05-24T06:40:16.352Z,99180.56
2023-05-24T06:45:21.727Z,99189.97
2023-05-24T06:50:27.008Z,99194.19
2023-05-24T06:55:34.822Z,99188.47
2023-05-24T07:00:44.704Z,99187.84
2023-05-24T07:05:51.766Z,99197.19
2023-05-24T07:11:01.806Z,99195.75
2023-05-24T07:16:10.616Z,99205.25
2023-05-24T07:21:17.936Z,99195.47
2023-05-24T07:26:25.669Z,99189.44
2023-05-24T07:31:32.656Z,99215.78
2023-05-24T07:36:37.830Z,99214.16
2023-05-24T07:41:46.033Z,99206.56
2023-05-24T07:46:53.223Z,99205.00
2023-05-24T07:52:00.494Z,99213.41
2023-05-24T07:57:11.233Z,99217.81
2023-05-24T08:02:17.352Z,99215.66
2023-05-24T08:12:51.684Z,99235.00
2023-05-24T08:17:57.014Z,99234.38
2023-05-24T08:23:04.869Z,99240.63
2023-05-24T08:28:15.624Z,99230.63
2023-05-24T08:33:23.080Z,99231.88
2023-05-24T08:38:29.652Z,99243.09
2023-05-24T08:43:38.418Z,99241.72
2023-05-24T08:48:49.632Z,99241.38
2023-05-24T08:53:59.173Z,99242.28
2023-05-24T08:59:08.936Z,99240.03
2023-05-24T09:04:15.100Z,99245.19
2023-05-24T09:09:25.919Z,99251.78
2023-05-24T09:14:35.866Z,99252.19
2023-05-24T09:19:44.788Z,99245.19
2023-05-24T09:24:51.522Z,99256.72
2023-05-24T09:29:59.212Z,99259.16
2023-05-24T09:35:07.511Z,99273.25
2023-05-24T09:40:21.960Z,99255.94
2023-05-24T09:45:33.598Z,99254.19
2023-05-24T09:50:40.022Z,99259.63
2023-05-24T09:55:54.138Z,99265.47
2023-05-24T10:01:14.146Z,99259.56
2023-05-24T10:06:21.235Z,99245.50
2023-05-24T10:11:33.719Z,99261.94
2023-05-24T10:16:42.272Z,99262.00
2023-05-24T10:21:50.191Z,99261.19
2023-05-24T10:26:59.248Z,99266.47
2023-05-24T10:32:08.875Z,99269.09
2023-05-24T10:37:20.009Z,99264.38
2023-05-24T10:42:26.627Z,99259.53
2023-05-24T10:47:35.850Z,99257.47
2023-05-24T10:52:44.112Z,99271.00
2023-05-24T10:58:12.881Z,99277.81
2023-05-24T11:03:30.245Z,99275.91
2023-05-24T11:08:39.250Z,99283.63
2023-05-24T11:13:45.415Z,99280.00
2023-05-24T11:19:00.910Z,99283.00
2023-05-24T11:24:10.272Z,99269.75
2023-05-24T11:29:19.344Z,99277.00
2023-05-24T11:34:31.161Z,99273.53
2023-05-24T11:39:38.816Z,99272.72
2023-05-24T11:44:44.129Z,99267.84
2023-05-24T11:50:01.413Z,99250.91
2023-05-24T11:55:07.523Z,99253.22
2023-05-24T12:00:17.380Z,99265.09
2023-05-24T12:05:26.785Z,99271.34
2023-05-24T12:10:34.484Z,99268.03
2023-05-24T12:15:41.046Z,99277.88
2023-05-24T12:20:49.178Z,99269.47
2023-05-24T12:26:03.645Z,99284.47
2023-05-24T12:31:14.993Z,99271.81
2023-05-24T12:36:24.287Z,99275.97
2023-05-24T12:41:36.784Z,99273.09
2023-05-24T12:46:42.050Z,99266.50
2023-05-24T12:51:51.737Z,99268.25
2023-05-24T12:57:02.414Z,99280.25
2023-05-24T13:02:08.892Z,99274.25
2023-05-24T13:07:17.157Z,99274.88
2023-05-24T13:12:24.271Z,99269.75
2023-05-24T13:17:29.856Z,99272.69
2023-05-24T13:22:40.504Z,99254.69
2023-05-24T13:27:52.287Z,99263.44
2023-05-24T13:33:29.659Z,99260.22
2023-05-24T13:38:54.317Z,99251.97
2023-05-24T13:44:17.159Z,99241.91
2023-05-24T13:49:23.501Z,99249.47
2023-05-24T13:54:32.451Z,99256.34
2023-05-24T13:59:38.063Z,99263.66
2023-05-24T14:04:43.324Z,99251.91
2023-05-24T14:09:54.649Z,99238.75
2023-05-24T14:15:00.462Z,99244.28
2023-05-24T14:20:07.637Z,99233.75
2023-05-24T14:25:17.151Z,99229.00
2023-05-24T14:30:22.271Z,99232.91
2023-05-24T14:35:28.192Z,99229.53
2023-05-24T14:40:37.559Z,99234.25
2023-05-24T14:45:44.293Z,99222.38
2023-05-24T14:50:51.992Z,99227.44
2023-05-24T14:55:59.744Z,99234.19
2023-05-24T15:01:05.107Z,99237.22
2023-05-24T15:06:13.004Z,99229.91
2023-05-24T15:11:21.106Z,99237.31
2023-05-24T15:16:26.607Z,99236.41
2023-05-24T15:21:34.404Z,99230.38
2023-05-24T15:26:44.637Z,99240.34
2023-05-24T15:31:51.083Z,99236.63
2023-05-24T15:36:56.160Z,99221.28
2023-05-24T15:42:04.285Z,99222.66
2023-05-24T15:47:09.693Z,99247.63
2023-05-24T15:52:16.516Z,99240.38
2023-05-24T15:57:24.288Z,99237.66
2023-05-24T16:02:30.184Z,99244.47
2023-05-24T16:07:35.581Z,99246.72
2023-05-24T16:12:46.425Z,99247.03
2023-05-24T16:17:51.708Z,99247.63
2023-05-24T16:22:57.038Z,99238.72
2023-05-24T16:28:04.742Z,99230.66
2023-05-24T16:33:09.929Z,99233.13
2023-05-24T16:38:15.056Z,99233.00
2023-05-24T16:43:23.223Z,99240.81
2023-05-24T16:48:32.004Z,99250.66
2023-05-24T16:53:37.253Z,99246.91
2023-05-24T16:58:45.101Z,99244.28
2023-05-24T17:03:51.456Z,99248.88
2023-05-24T17:08:57.399Z,99236.38
2023-05-24T17:14:09.513Z,99238.59
2023-05-24T17:19:19.606Z,99252.09
2023-05-24T17:24:27.906Z,99258.75
2023-05-24T17:29:36.418Z,99253.22
2023-05-24T17:34:41.574Z,99260.34
2023-05-24T17:39:47.531Z,99265.84
2023-05-24T17:44:56.531Z,99268.13
2023-05-24T17:50:02.876Z,99281.19
2023-05-24T17:55:12.691Z,99267.56
2023-05-24T18:00:22.939Z,99270.13
2023-05-24T18:05:28.081Z,99286.63
2023-05-24T18:10:35.654Z,99292.88
2023-05-24T18:15:46.738Z,99298.41
2023-05-24T18:20:52.213Z,99293.53
2023-05-24T18:26:00.249Z,99296.34
2023-05-24T18:31:15.095Z,99306.00
2023-05-24T18:36:20.314Z,99314.38
2023-05-24T18:41:25.581Z,99315.81
2023-05-24T18:46:33.884Z,99320.22
2023-05-24T18:51:39.156Z,99319.41
2023-05-24T18:56:45.771Z,99342.44
2023-05-24T19:01:55.501Z,99339.16
2023-05-24T19:07:00.840Z,99339.69
2023-05-24T19:12:06.319Z,99331.53
2023-05-24T19:17:15.559Z,99334.84
2023-05-24T19:22:20.688Z,99336.78
2023-05-24T19:27:25.908Z,99357.47
2023-05-24T19:32:35.945Z,99357.69
2023-05-24T19:37:42.660Z,99362.47
2023-05-24T19:42:49.609Z,99374.72
2023-05-24T19:47:58.182Z,99371.13
2023-05-24T19:53:05.692Z,99382.91
2023-05-24T19:58:10.960Z,99383.88
2023-05-24T20:03:19.581Z,99390.31
2023-05-24T20:08:26.404Z,99392.28
2023-05-24T20:13:33.892Z,99397.22
2023-05-24T20:18:44.330Z,99405.94
2023-05-24T20:23:50.862Z,99405.47
2023-05-24T20:28:56.153Z,99406.34
2023-05-24T20:34:04.094Z,99403.97
2023-05-24T20:39:09.651Z,99407.63
2023-05-24T20:44:15.010Z,99407.47
2023-05-24T20:49:24.829Z,99413.75
2023-05-24T20:54:29.918Z,99411.81
2023-05-24T20:59:35.359Z,99420.94
2023-05-24T21:04:43.141Z,99423.09
2023-05-24T21:09:57.568Z,99430.47
2023-05-24T21:15:02.894Z,99439.41
2023-05-24T21:20:13.013Z,99443.88
2023-05-24T21:25:18.943Z,99457.25
2023-05-24T21:30:24.157Z,99462.53
2023-05-24T21:35:32.816Z,99446.59
2023-05-24T21:40:38.008Z,99450.72
2023-05-24T21:45:43.416Z,99446.47
2023-05-24T21:50:52.456Z,99444.31
2023-05-24T21:55:57.673Z,99453.69
2023-05-24T22:01:03.390Z,99450.50
2023-05-24T22:06:13.283Z,99451.53
2023-05-24T22:11:23.683Z,99452.00
2023-05-24T22:16:29.437Z,99458.81
2023-05-24T22:21:38.535Z,99468.56
2023-05-24T22:26:47.446Z,99477.69
2023-05-24T22:32:00.435Z,99469.09
2023-05-24T22:37:08.501Z,99473.31
2023-05-24T22:42:17.051Z,99471.25
2023-05-24T22:47:33.692Z,99478.13
2023-05-24T22:52:43.229Z,99483.00
2023-05-24T22:57:48.488Z,99478.94
2023-05-24T23:02:54.570Z,99478.44
2023-05-24T23:08:06.381Z,99471.53
2023-05-24T23:13:11.948Z,99465.28
2023-05-24T23:18:18.331Z,99480.59
2023-05-24T23:23:27.530Z,99471.44
2023-05-24T23:28:32.955Z,99475.50
2023-05-24T23:33:38.711Z,99480.06
2023-05-24T23:38:50.388Z,99489.34
2023-05-24T23:43:55.596Z,99484.38
2023-05-24T23:49:00.781Z,99491.28
2023-05-24T23:54:09.941Z,99488.91
2023-05-24T23:59:15.161Z,99490.22
